메인 페이지
METAR-TAF:

METAR-TAF

공항 :

Garden City, 캔자스, 미국

위도: 37-55-39N, 경도: 100-43-28W, 고도: 881m

현재 날씨관측

예보는 21분 전, 11:54시(UTC)에 발표되었습니다.
서남서7kt
온도 -17°C
습도 84%
기압 1032 hPa
시정: 16.1km
맑음

METAR: KGCK 121154Z AUTO 24007KT 10SM CLR M17/M19 A3048 RMK AO2 SLP377 T11721189 11144 21183 58033 $

시각: 06:15 (12:15 UTC)

예보

예보는 55분 전, 11:20시(UTC)에 발표되었습니다.
예보 대상 시간: 12일 12시부터 13일 12시까지 (UTC)
남서5kt
시정: 10km
맑음
12일 1800시부터 (UTC)
19kt, 순간 최대 풍속 27kt
시정: 10km
맑음
12일 2300시부터 (UTC)
17kt
시정: 10km
맑음
13일 0800시부터 (UTC)
남남서9kt
시정: 10km
맑음

TAF: KGCK 121120Z 1212/1312 22005KT P6SM SKC FM121800 19019G27KT P6SM SKC FM122300 18017KT P6SM SKC FM130800 21009KT P6SM SKC

4,000개 이상의 공항 관측 자료 및 예보 (METAR 및 TAF 보고).

지도상에서 검색 가능한 기상관측소가 노란 점과 빨간 점으로 표시되어 있습니다.

기상관측소 명을 보려면 표시 위로 마우스를 이동하세요.

날씨 관측과 예보를 보려면 클릭하세요.

지도 변경 : 확대하려면 엑스 표시가 있는 녹색 버튼, 축소하려면 빼기 표시가 있는 녹색 버튼, 다음 페이지의 지도를 보려면 녹색 화살표를 클릭하세요.


METAR-TAF: